Winnemucca, NV

6:02 PM PST on February 23, 2017 (GMT -0800)
Thomas Canyon | | Change Station
Active Advisory: Flood Warning

Elev 4357 ft 40.91 °N, 117.76 °W | Updated 2 seconds ago

Clear
Clear
28.9 °F
Feels Like 24 °F
N
4.9
Wind Variable Wind from NNW
Gusts 7.4 mph

Today
High -- | Low -- °F
--% Chance of Precip.
Yesterday
High -- | Low -- °F
Precip. -- in
Pressure 30.09 in
Visibility 10.0 miles
Clouds Few 6500 ft
Windchill 24 °F
Dew Point 10 °F
Humidity 45%
Rainfall 0.00 in
Snow Depth Not available.
6:33 AM 5:35 PM
Waning Crescent, 7% visible
METAR KLOL 240053Z AUTO 01010KT 10SM FEW065 01/M10 A3003 RMK AO2 RAB2359E18 SLP187 P0000 T00111100
Pressure 30.09 in
Visibility 10.0 miles
Clouds Few 6500 ft
Windchill 24 °F
Dew Point 10 °F
Humidity 45%
Rainfall 0.00 in
Snow Depth Not available.
6:33 AM 5:35 PM
Waning Crescent, 7% visible
METAR KLOL 240053Z AUTO 01010KT 10SM FEW065 01/M10 A3003 RMK AO2 RAB2359E18 SLP187 P0000 T00111100

Get Your Daily Forecast Email!

Thanks for signing up!

Be on the lookout for a verification email in your inbox.

You'll start receiving the daily forecast at 8 AM.

×

10-Day Weather Forecast

Almanac

Astronomy

Feb. 23, 2017 Rise Set
Actual Time
Civil Twilight
Nautical Twilight
Astronomical Twilight
Moon
Length of Visible Light
Length of Day
Tomorrow will be .
, % of the Moon is Illuminated

Today's Extremes

State Highs State Lows

Community

WunderPhotos

Upload Photos

1,962,540 photos uploaded!

WunderBlog® & News

Nearby

Air Quality

  Air Quality AQ Index Pollutant
Not available.

Snow Depth

Station Depth Elevation

Earthquake Activity

City Distance Mag. Time & Date
Minimum magnitude displayed is 2.5.

Coastal Water Temperatures

Place Temperature

Stations

Nearby Weather Stations

Station Location Temp. Windchill Dew Point Humidity Wind Precip. Elev Updated Type
                   

Watches & Warnings

Flood Warning
Issued: 4:06 AM PST Feb. 23, 2017 – National Weather Service

The Flood Warning continues for
the Humboldt River at Comus.
* Until further notice.
* At 3:15 am Thursday the stage was 10.8 feet.
* Flood stage is 9.5 feet.
* Moderate flooding is occurring and moderate flooding is forecast.
* Forecast... the river will continue to fall to a stage of 10.4 feet
by early tomorrow.
* Impact... at 11.0 feet... moderate to major lowland flooding
throughout reach. Many rural roads near river flooded. Minor to
moderate flooding in lower portions of Winnemucca. Main area
impacted is between uprr and Golconda street on west and second
street on the east, beneath i80. 3800 cfs, about a 14 year flood, 7
percent chance any year. Similar to floods of June 1921 and April
1969.


Lat... Lon 4103 11702 4070 11705 4090 11762 4087 11800 4118 11795


Ds